Details for AirAsia at WMKJ




Go Back


Latest METAR
Local Time

WMKJ 241300Z VRB02KT 9999 FEW022 BKN280 24/23 Q1010

24/02/2018, 21:39:16

Description
Results
AirAsia Logo
Number of Pilots based at WMKJ
0 Pilots Based here
Number of AirAsia Flights Departed from WMKJ
0 Flights Departed
Number of AirAsia Flights Arrived at WMKJ
0 Flights Arrived
Number of AirAsia Schedules Departing from WMKJ
22 Schedules
Number of AirAsia Schedules Arriving at WMKJ
22 Schedules
Number of AirAsia Schedules Departing from WMKJ availible today
18 Schedules Today
Number of AirAsia Schedules Arriving at WMKJ availible today
18 Schedules Today
Average Landing Rate at WMKJ
0 fpm
AirAsia Average Landing Rate at WMKJ
0 fpm
Total Fuel Purchased at WMKJ by AirAsia
0.00 kgs / 0.00 lbs

Pilots Based at WMKJ


Pilot ID
Pilot Name
Pilot Rank
No. of Flights
No. of Flying Hours
There are no pilots assigned to this hub!   Will you be the first?
Content